createdAt,value
2023-03-12T00:06:39.274Z,5.50
2023-03-12T00:21:41.635Z,5.20
2023-03-12T00:36:44.200Z,4.90
2023-03-12T00:51:46.727Z,4.50
2023-03-12T01:06:49.081Z,5.00
2023-03-12T01:21:51.806Z,5.10
2023-03-12T01:36:55.310Z,4.80
2023-03-12T01:52:03.336Z,4.20
2023-03-12T02:07:13.769Z,4.40
2023-03-12T02:22:16.411Z,4.50
2023-03-12T02:37:19.884Z,4.50
2023-03-12T02:52:22.402Z,5.00
2023-03-12T03:07:24.784Z,4.90
2023-03-12T03:22:27.410Z,4.80
2023-03-12T03:37:29.825Z,4.90
2023-03-12T03:52:32.867Z,5.10
2023-03-12T04:07:35.462Z,5.70
2023-03-12T04:22:38.271Z,5.90
2023-03-12T04:37:41.268Z,5.90
2023-03-12T04:52:43.814Z,5.50
2023-03-12T05:07:47.053Z,5.00
2023-03-12T05:22:49.575Z,5.00
2023-03-12T05:37:52.480Z,5.00
2023-03-12T05:52:55.004Z,5.00
2023-03-12T06:07:57.695Z,5.00
2023-03-12T06:23:00.198Z,5.10
2023-03-12T06:38:02.670Z,5.30
2023-03-12T06:53:05.500Z,5.50
2023-03-12T07:08:07.876Z,5.70
2023-03-12T07:23:10.680Z,5.60
2023-03-12T07:38:13.673Z,5.60
2023-03-12T07:53:16.214Z,5.60
2023-03-12T08:08:18.610Z,5.60
2023-03-12T08:23:23.028Z,5.70
2023-03-12T08:38:25.513Z,6.30
2023-03-12T08:53:28.218Z,5.00
2023-03-12T09:08:30.740Z,6.40
2023-03-12T09:23:33.136Z,6.70
2023-03-12T09:38:37.734Z,7.30
2023-03-12T09:53:51.513Z,7.50
2023-03-12T10:09:06.952Z,7.50
2023-03-12T10:24:31.418Z,7.70
2023-03-12T10:39:33.771Z,8.00
2023-03-12T10:54:40.964Z,8.10
2023-03-12T11:09:43.726Z,8.40
2023-03-12T11:24:56.892Z,8.50
2023-03-12T11:40:28.980Z,9.00
2023-03-12T11:55:55.312Z,9.50
2023-03-12T12:11:24.630Z,9.90
2023-03-12T12:26:47.457Z,10.00
2023-03-12T12:41:57.767Z,12.40
2023-03-12T12:57:35.583Z,10.60
2023-03-12T13:12:56.084Z,10.60
2023-03-12T13:28:02.181Z,10.90
2023-03-12T13:43:15.669Z,10.90
2023-03-12T13:58:23.430Z,11.00
2023-03-12T14:13:34.628Z,11.10
2023-03-12T14:28:41.941Z,11.10
2023-03-12T14:43:46.265Z,11.10
2023-03-12T14:58:49.854Z,11.20
2023-03-12T15:13:54.788Z,11.30
2023-03-12T15:28:58.429Z,11.30
2023-03-12T15:44:01.497Z,11.00
2023-03-12T15:59:17.879Z,11.00
2023-03-12T16:14:24.456Z,11.20
2023-03-12T16:29:32.280Z,11.30
2023-03-12T16:44:35.212Z,11.00
2023-03-12T16:59:38.401Z,10.90
2023-03-12T17:14:40.990Z,10.80
2023-03-12T17:29:43.415Z,10.90
2023-03-12T17:44:45.984Z,11.00
2023-03-12T17:59:48.504Z,11.00
2023-03-12T18:14:51.093Z,10.90
2023-03-12T18:29:54.534Z,11.00
2023-03-12T18:44:56.948Z,11.30
2023-03-12T18:59:59.437Z,11.20
2023-03-12T19:15:01.784Z,11.20
2023-03-12T19:30:04.966Z,11.10
2023-03-12T19:45:07.912Z,10.90
2023-03-12T20:00:12.428Z,10.60
2023-03-12T20:15:15.161Z,10.70
2023-03-12T20:30:17.605Z,10.60
2023-03-12T20:45:19.991Z,10.60
2023-03-12T21:00:22.604Z,10.50
2023-03-12T21:15:24.902Z,10.60
2023-03-12T21:30:27.772Z,10.60
2023-03-12T21:45:30.605Z,10.50
2023-03-12T22:00:32.946Z,10.40
2023-03-12T22:15:35.467Z,10.40
2023-03-12T22:30:37.892Z,10.50
2023-03-12T22:45:40.255Z,10.40
2023-03-12T23:00:42.708Z,10.70
2023-03-12T23:15:45.333Z,10.80
2023-03-12T23:31:05.124Z,10.80
2023-03-12T23:46:08.652Z,10.90
